KDFW/DFW METAR and TAF weather

Enter ICAO airport designator
Station Type Date Time Source
KDFW METAR 2020/07/11 00:53 UTC NOAA

KDFW 110053Z 18011KT 10SM FEW047 FEW090 SCT210 BKN300 32/23 A2994 RMK AO2 SLP128 ACC NE T03170233


Station Type Date Time Source
KDFW Decoded METAR 2020/07/11 00:53 UTC NOAA

DALLAS/FT. WORTH INTERNATIONAL AIRPORT , TX, United States (KDFW) 32-54N 097-02W 174M
Jul 10, 2020 - 08:53 PM EDT / 2020.07.11 0053 UTC
Wind: from the S (180 degrees) at 13 MPH (11 KT):0
Visibility: 10 mile(s):0
Sky conditions: mostly cloudy
Temperature: 89.1 F (31.7 C)
Heat index: 98.1 F (36.7 C):1
Dew Point: 73.9 F (23.3 C)
Relative Humidity: 61%
Pressure (altimeter): 29.94 in. Hg (1013 hPa)
ob: KDFW 110053Z 18011KT 10SM FEW047 FEW090 SCT210 BKN300 32/23 A2994 RMK AO2 SLP128 ACC NE T03170233
cycle: 1

Station Type Date Time Source
KDFW TAF 2020/07/10 21:57 UTC NOAA

KDFW 102053Z 1021/1124 13010KT P6SM SCT040 SCT300
FM110800 18009KT P6SM FEW070 SCT300
FM111500 21012KT P6SM FEW250

Example: see airport list